»·PEaware :: SWA925 KLAS-KSBA

SWA925 :: KLAS-KSBA

FLIGHT INFORMATION

Flight Status: Arrived
Operator:
Southwest Airlines
More flights by this operator :: More flights under this callsign
Pilot: John N. (18861)
Aircraft: BOEING 737-800
(B738)
More flights by this aircraft type
Origin: KLAS McCarran Intl
United States
Destination: KSBA Santa Barbara Mun
United States
More flights between these airports :: More routes between these airports
Route: +BOACH8 HEC PITBL1
File this flight plan on PilotEdge
Remarks:
Altitude:
(Current/Filed)
320ft
Speed:
(Current/Filed)
160kts
Departed: 09-May-18 09:14 AM
Arrived: 09-May-18 10:52 AM
Distance/Time
Traveled:
250nm/1:38
Distance/Time
To Go:
Arrived

Flight Plot

Page will automatically refresh every two minutes.

Flight plan parsing failed; only flown route is shown


Map Options




Map Legend


Flown Route
Filed Route
Departure Airport
Arrival Airport
Navaid (VOR, NDB)
Fix

Horizontal Profiles

Position Reports

Time Latitude Longitude Heading Altitude Ground
Speed
09-May-18 09:13 36.048521 -114.918379 91 3573ft 332kts
09-May-18 09:14 36.049297 -114.878629 87 4920ft 305kts
09-May-18 09:15 36.086517 -115.153248 113 2123ft 0kts
09-May-18 09:16 36.086516 -115.153247 113 2123ft 0kts
09-May-18 09:17 36.086516 -115.153245 113 2123ft 0kts
09-May-18 09:18 36.086515 -115.153244 113 2123ft 0kts
09-May-18 09:19 36.086515 -115.153243 113 2123ft 0kts
09-May-18 09:20 36.086514 -115.153241 113 2123ft 0kts
09-May-18 09:31 36.086280 -115.153621 101 2123ft 0kts
09-May-18 09:32 36.086280 -115.153620 101 2123ft 0kts
09-May-18 09:33 36.086279 -115.153618 101 2123ft 0kts
09-May-18 09:34 36.086279 -115.153616 101 2123ft 0kts
09-May-18 09:35 36.086279 -115.153614 101 2123ft 0kts
09-May-18 09:36 36.086278 -115.153613 101 2123ft 0kts
09-May-18 09:37 36.086278 -115.153611 101 2123ft 0kts
09-May-18 09:38 36.086278 -115.153610 101 2123ft 0kts
09-May-18 09:39 36.086278 -115.153609 101 2123ft 0kts
09-May-18 09:40 36.086277 -115.153607 101 2123ft 0kts
09-May-18 09:41 36.086277 -115.153605 101 2123ft 0kts
09-May-18 09:42 36.086277 -115.153604 101 2123ft 0kts
09-May-18 09:43 36.086277 -115.153602 101 2123ft 0kts
09-May-18 09:44 36.086276 -115.153601 101 2123ft 0kts
09-May-18 09:45 36.086267 -115.153546 102 2123ft 0kts
09-May-18 09:46 36.086266 -115.153544 102 2123ft 0kts
09-May-18 09:47 36.086266 -115.153542 102 2123ft 0kts
09-May-18 09:48 36.086346 -115.153988 102 2123ft 0kts
09-May-18 09:49 36.086346 -115.153986 102 2123ft 0kts
09-May-18 09:50 36.086345 -115.153985 102 2123ft 0kts
09-May-18 09:51 36.086345 -115.153983 102 2123ft 0kts
09-May-18 09:52 36.086633 -115.153853 354 2123ft 19kts
09-May-18 09:53 36.090513 -115.155970 25 2123ft 20kts
09-May-18 09:54 36.095141 -115.153452 22 2123ft 20kts
09-May-18 09:55 36.097198 -115.152229 18 2123ft 0kts
09-May-18 09:56 36.097326 -115.152180 16 2123ft 8kts
09-May-18 09:57 36.094007 -115.156249 205 2123ft 92kts
09-May-18 09:58 36.048626 -115.177752 194 3696ft 232kts
09-May-18 09:59 35.984568 -115.204367 208 6611ft 255kts
09-May-18 10:00 35.916242 -115.257698 212 8822ft 287kts
09-May-18 10:01 35.856571 -115.307774 212 13185ft 231kts
09-May-18 10:02 35.789512 -115.309297 174 15138ft 278kts
09-May-18 10:03 35.709687 -115.298406 180 16939ft 317kts
09-May-18 10:04 35.629591 -115.357778 228 18194ft 366kts
09-May-18 10:05 35.559891 -115.452554 229 20715ft 380kts
09-May-18 10:06 35.492984 -115.542594 229 22827ft 391kts
09-May-18 10:07 35.418148 -115.642938 229 24367ft 415kts
09-May-18 10:08 35.337201 -115.751233 229 21432ft 412kts
09-May-18 10:09 35.264574 -115.847842 229 23143ft 385kts
09-May-18 10:10 35.190556 -115.945956 229 25354ft 393kts
09-May-18 10:11 35.117313 -116.042750 229 28047ft 382kts
09-May-18 10:12 35.046427 -116.136166 229 30746ft 362kts
09-May-18 10:13 34.978806 -116.225349 230 32029ft 370kts
09-May-18 10:14 34.905807 -116.321002 229 32023ft 390kts
09-May-18 10:15 34.831761 -116.417616 229 32029ft 389kts
09-May-18 10:16 34.787990 -116.533945 258 32045ft 383kts
09-May-18 10:17 34.767944 -116.661553 259 32026ft 383kts
09-May-18 10:18 34.748599 -116.788039 259 32014ft 383kts
09-May-18 10:19 34.729398 -116.915295 259 32029ft 383kts
09-May-18 10:20 34.710306 -117.042960 259 32061ft 383kts
09-May-18 10:21 34.691010 -117.170177 259 31651ft 385kts
09-May-18 10:22 34.671473 -117.297741 259 29976ft 389kts
09-May-18 10:23 34.651356 -117.428028 259 28795ft 394kts
09-May-18 10:24 34.630947 -117.559207 259 27751ft 398kts
09-May-18 10:25 34.610141 -117.691950 259 26749ft 401kts
09-May-18 10:26 34.589243 -117.824299 259 24185ft 394kts
09-May-18 10:27 34.568780 -117.952978 259 21686ft 382kts
09-May-18 10:28 34.549099 -118.077444 259 19179ft 368kts
09-May-18 10:29 34.529811 -118.196768 259 16680ft 353kts
09-May-18 10:30 34.511580 -118.308379 259 14937ft 324kts
09-May-18 10:31 34.494840 -118.411432 260 14141ft 300kts
09-May-18 10:32 34.479377 -118.506808 259 14010ft 295kts
09-May-18 10:33 34.463335 -118.604002 259 14017ft 289kts
09-May-18 10:34 34.448912 -118.691063 259 14020ft 286kts
09-May-18 10:35 34.433438 -118.784036 259 14021ft 276kts
09-May-18 10:36 34.419569 -118.866034 259 12601ft 288kts
09-May-18 10:37 34.404957 -118.950774 259 10980ft 284kts
09-May-18 10:38 34.389104 -119.042551 259 9416ft 269kts
09-May-18 10:39 34.374373 -119.129363 260 8981ft 254kts
09-May-18 10:40 34.360556 -119.212707 259 8986ft 252kts
09-May-18 10:41 34.346454 -119.296015 260 8711ft 255kts
09-May-18 10:42 34.333100 -119.374212 261 6637ft 211kts
09-May-18 10:43 34.322169 -119.437952 261 5057ft 178kts
09-May-18 10:44 34.312146 -119.496334 261 4225ft 175kts
09-May-18 10:45 34.319939 -119.545718 296 3632ft 165kts
09-May-18 10:46 34.339422 -119.596584 294 1770ft 171kts
09-May-18 10:47 34.363223 -119.645301 304 1457ft 183kts
09-May-18 10:48 34.383824 -119.703842 285 2305ft 169kts
09-May-18 10:49 34.399511 -119.751577 295 1541ft 151kts
09-May-18 10:50 34.420005 -119.794698 300 921ft 139kts
09-May-18 10:51 34.428003 -119.834716 262 32ft 126kts
09-May-18 10:52 34.426573 -119.845860 87 18ft 0kts

Navigation Log

Ident Type
Flight plan parsing failed, navigation log unavailable